Savannah, GA (31403)

8:42 PM EDT on October 24, 2014 (GMT -0400)
Gould Estates | Change Station
CLOSE
Current Station
Personal Weather Station
Location: Savannah, GA
Elevation: 52 ft
Nearby Weather Stations

Elev 52 ft 32.04 °N, 81.10 °W | Updated 3 minutes ago

Clear
Clear
57.2 °F
Feels Like 57.2 °F
N
0.0
Wind Variable Wind from North
Gusts 0.0 mph

Today
High -- | Low -- °F
--% Chance of Precip.
Yesterday
High -- | Low -- °F
Precip. -- in
7:34 AM 6:42 PM
New Moon, 1% visible
Pressure 29.98 in
Visibility 10.0 miles
Clouds Clear
Dew Point 49 °F
Humidity 73%
Rainfall 0.02 in
Snow Depth Not available.
UV 0 out of 12
Pollen 4.00 out of 12
Air Quality Not available.
Flu Activity Sporadic
METAR KSVN 242358Z AUTO 12001KT 10SM CLR 15/11 A2997 RMK AO2 SLP152 T01460110 10239 20143 51006

More Conditions Fewer Conditions

Pressure 29.98 in
Visibility 10.0 miles
Clouds Clear
Dew Point 49 °F
Humidity 73%
Rainfall 0.02 in
Snow Depth Not available.
UV 0 out of 12
Pollen 4.00 out of 12
Air Quality Not available.
Flu Activity Sporadic
METAR KSVN 242358Z AUTO 12001KT 10SM CLR 15/11 A2997 RMK AO2 SLP152 T01460110 10239 20143 51006

More Conditions Fewer Conditions

10-Day Weather Forecast

Almanac

Astronomy

Oct. 24, 2014 Rise Set
Actual Time 7:34 AM EDT 6:42 PM EDT
Civil Twilight 7:09 AM EDT 7:07 PM EDT
Nautical Twilight 6:41 AM EDT 7:35 PM EDT
Astronomical Twilight 6:12 AM EDT 8:04 PM EDT
Moon 8:10 AM EDT (10/24) 7:23 PM EDT (10/24)
Length of Visible Light 11h 57m
Length of Day
11h 07m
Tomorrow will be 1m 48s shorter.
New Moon, 1% of the Moon is Illuminated
Today
New Moon
Oct 30
First Quarter
Nov 6
Full
Nov 14
Last Quarter
Nov 22
New

Today's Extremes

State Highs State Lows

Community

WunderPhotos

Upload Photos

1,764,735 photos uploaded!

WunderBlogs® & News

Nearby

Snow Depth

Station Depth Elevation
No new snow has been reported.

Earthquake Activity

City Distance Mag. Time & Date
No recent earthquake activity has been reported nearby.
Minimum magnitude displayed is 2.5.

Coastal Water Temperatures

Place Temperature
No Stations Reporting

Nearby Weather Stations